Lennep, Montana
Current Conditions -  °F | °C
As of 8:53 PM on Friday 24 Oct 2014 (Local Time) from KLVM Reporting Station
Few Clouds Few Clouds  
Wind Chill: 44°   Ceiling: Unl
Heat Index: 44°   Visibility: 10mi
Dew Point: 37°   Wind: 3mph
Humidity: 76%   Direction: 140°SE
Pressure: 30.08"   Gusts: NA
Location:  46.4682°N, 110.512°W
Report Text: KLVM 250253Z AUTO 14003KT 10SM FEW110 07/03 A3008 RMK AO2 SLP173 T00670028 50001
Loading
Personal Weather Stations






























Interactive Weather Map
Tropical Storm Tracking
New forecast layout! Learn more

10-Day Weather Forecast

Advertisements
Track Severe Weather on mobile